x

8454049 - Quonset Point, Ri (qptr1) Weather Station

2:24am - Sat 25th Oct 2014 All times are EDT. -4 hours from GMT.

  • Wind
    5mph, 7mph gusts
  • Sea Temp 59°f
  • 空気 Temp 49°f
  • Sea Pressure 1007.5mb
  • 8454049 - Quonset Point, Ri
  • 8454049 - Quonset Point, Ri

More Historic Weather Station data

Upgrade to MSW Pro to gain access to the past 30 days of data for over 8000 Wavebouys and Weather Stations around the globe.

Join Pro

Comparision Forecast

View Surf forecast
   
Sat 10/25 2:24am 5 7 mph 1007.5mb 59f 49f
2:18am 5 6 mph 1007.4mb 59f 49f
2:12am 5 7 mph 1007.4mb 59f 50f
2:06am 5 6 mph 1007.5mb 59f 50f
2:00am 5 7 mph 1007.4mb 59f 50f
1:54am 6 7 mph 1007.4mb 59f 50f
1:48am 3 6 mph 1007.4mb 59f 50f
1:42am 3 6 mph 1007.4mb 59f 50f
1:36am 5 7 mph 1007.3mb 59f 51f
1:30am 3 6 mph 1007.3mb 59f 51f
1:24am 3 7 mph 1007.3mb 59f 51f
1:18am 5 8 mph 1007.3mb 59f 51f
1:12am 5 9 mph 1007.2mb 59f 51f
1:06am 5 8 mph 1007.3mb 59f 51f
1:00am 6 8 mph 1007.3mb 59f 51f
12:54am 6 8 mph 1007.4mb 59f 52f
12:48am 6 8 mph 1007.4mb 59f 51f
12:42am 6 8 mph 1007.4mb 59f 52f
12:36am 6 8 mph 1007.5mb 59f 52f
12:30am 6 9 mph 1007.5mb 59f 52f
12:24am 7 11 mph 1007.4mb 59f 51f
12:12am 7 9 mph 1007.4mb 59f 52f
12:06am 7 10 mph 1007.4mb 59f 52f
12:00am 6 9 mph 1007.4mb 59f 52f
Fri 10/24 11:54pm 8 10 mph 1007.4mb 59f 52f
11:48pm 7 10 mph 1007.4mb 59f 52f
11:42pm 7 13 mph 1007.3mb 59f 52f
11:36pm 8 10 mph 1007.2mb 59f 52f
11:30pm 6 11 mph 1007.2mb 59f 52f
11:24pm 8 15 mph 1007.2mb 59f 52f
11:18pm 7 11 mph 1007.2mb - 52f
11:12pm 6 10 mph 1007.2mb - 52f
11:06pm 7 9 mph 1007.1mb - 52f
11:00pm 7 9 mph 1007.1mb 58f 52f
10:54pm 7 13 mph 1007mb 58f 52f
10:48pm 8 10 mph 1007mb 58f 52f
10:42pm 6 13 mph 1007mb 58f 52f
10:36pm 9 13 mph 1007mb 58f 52f
10:30pm 8 13 mph 1007mb 58f 52f
10:24pm 7 13 mph 1006.9mb 58f 52f
10:18pm 8 11 mph 1006.9mb 58f 52f
10:12pm 6 11 mph 1006.8mb 58f 52f
10:06pm 8 11 mph 1006.8mb 58f 52f
10:00pm 8 11 mph 1006.8mb 58f 52f
9:54pm 8 13 mph 1006.8mb 58f 52f
9:48pm 7 11 mph 1006.9mb 58f 52f
9:42pm 9 17 mph 1006.8mb 58f 52f
9:36pm 10 14 mph 1006.8mb 58f 52f
9:30pm 8 10 mph 1006.7mb 58f 52f
9:24pm 9 11 mph 1006.8mb 58f 52f
9:18pm 8 11 mph 1006.9mb 58f 52f
9:12pm 8 11 mph 1006.8mb 58f 52f
9:06pm 8 13 mph 1006.8mb 58f 52f
9:00pm 11 15 mph 1006.9mb 58f 52f
8:54pm 7 11 mph 1007mb 58f 52f
8:48pm 9 13 mph 1006.9mb 58f 52f
8:42pm 8 13 mph 1006.9mb 58f 52f
8:36pm 7 11 mph 1006.9mb 58f 52f
8:30pm 9 15 mph 1006.9mb 58f 52f
8:24pm 10 15 mph 1006.9mb 58f 52f
8:18pm 9 14 mph 1006.9mb 58f 52f
8:12pm 8 14 mph 1006.9mb 58f 53f
8:06pm 10 15 mph 1006.8mb 58f 53f
8:00pm 7 11 mph 1006.8mb 58f 53f
7:54pm 7 14 mph 1006.8mb 58f 53f
7:48pm 8 10 mph 1006.7mb 58f 53f
7:42pm 6 10 mph 1006.7mb 58f 53f
7:36pm 7 9 mph 1006.7mb 58f 53f
7:30pm 7 8 mph 1006.7mb 58f 53f
7:24pm 7 9 mph 1006.8mb 58f 53f
7:18pm 6 9 mph 1006.7mb 58f 53f
7:12pm 8 11 mph 1006.7mb 58f 53f
7:06pm 11 16 mph 1006.7mb 58f 53f
7:00pm 6 8 mph 1006.7mb 58f 53f
6:54pm 5 7 mph 1006.6mb 58f 53f
6:48pm 5 8 mph 1006.5mb 58f 54f
6:42pm 6 9 mph 1006.5mb 58f 54f
6:36pm 6 8 mph 1006.4mb 58f 53f
6:30pm 5 7 mph 1006.4mb 58f 54f
6:24pm 3 7 mph 1006.3mb 58f 53f
6:18pm 6 9 mph 1006.3mb 58f 53f
6:12pm 3 9 mph 1006.3mb 58f 53f
6:06pm 6 7 mph 1006.3mb 58f 53f
6:00pm 5 7 mph 1006.2mb 58f 53f
5:54pm 5 7 mph 1006.1mb 58f 53f
5:48pm 5 6 mph 1006mb 58f 53f
5:42pm 6 7 mph 1006mb 58f 53f
5:36pm 6 7 mph 1006.1mb 58f 53f
5:30pm 6 8 mph 1006.1mb 58f 53f
5:24pm 7 9 mph 1006mb 59f 53f
5:18pm 6 10 mph 1006mb 59f 53f
5:12pm 8 10 mph 1005.9mb 59f 53f
5:06pm 8 9 mph 1006mb 59f 53f
5:00pm 6 10 mph 1005.9mb 59f 53f
4:54pm 7 10 mph 1005.9mb 59f 53f
4:48pm 9 13 mph 1005.9mb 59f 54f
4:42pm 8 13 mph 1005.9mb 59f 54f
4:36pm 8 13 mph 1005.8mb 59f 53f
4:30pm 9 14 mph 1005.7mb 59f 53f
4:24pm 8 11 mph 1005.7mb 59f 54f
4:18pm 9 13 mph 1005.6mb 59f 54f
4:12pm 9 14 mph 1005.5mb 59f 54f
4:06pm 7 10 mph 1005.5mb 59f 54f
4:00pm 8 11 mph 1005.5mb 59f 54f
3:54pm 8 11 mph 1005.4mb 59f 54f
3:48pm 9 13 mph 1005.3mb 59f 54f
3:42pm 9 14 mph 1005.3mb 59f 54f
3:36pm 8 13 mph 1005.2mb 59f 54f
3:30pm 9 16 mph 1005.2mb 59f 54f
3:24pm 9 13 mph 1005.2mb 59f 54f
3:18pm 10 15 mph 1005.2mb 59f 54f
3:12pm 10 14 mph 1005.2mb 59f 54f
3:06pm 9 15 mph 1005.1mb 59f 54f
3:00pm 9 14 mph 1004.9mb 59f 55f
2:54pm 13 17 mph 1004.9mb 59f 54f
2:48pm 10 15 mph 1005mb 59f 54f
2:42pm 9 14 mph 1005mb 59f 54f
2:36pm 9 14 mph 1005mb 59f 54f
2:30pm 9 13 mph 1004.9mb 59f 55f
2:24pm 9 13 mph 1004.8mb 59f 54f
2:18pm 10 14 mph 1004.7mb 59f 54f
2:12pm 9 13 mph 1004.8mb 59f 54f
2:06pm 13 15 mph 1004.8mb 59f 54f
2:00pm 10 16 mph 1004.8mb 59f 54f
1:54pm 8 11 mph 1004.8mb 59f 54f
1:48pm 9 14 mph 1004.8mb 59f 54f
1:42pm 9 15 mph 1004.8mb 59f 54f
1:36pm 10 14 mph 1004.9mb 59f 54f
1:30pm 13 15 mph 1004.8mb 59f 54f
1:24pm 10 14 mph 1004.8mb 59f 54f
1:18pm 10 15 mph 1004.8mb 59f 54f
1:12pm 9 15 mph 1004.8mb 59f 54f
1:06pm 11 15 mph 1004.8mb 59f 54f
1:00pm 9 16 mph 1004.9mb 59f 54f
12:54pm 11 15 mph 1004.9mb 59f 54f
12:48pm 11 15 mph 1004.9mb 59f 54f
12:42pm 10 15 mph 1005mb 59f 54f
12:36pm 11 16 mph 1005.1mb 59f 54f
12:30pm 13 17 mph 1005.2mb 59f 53f
12:24pm 11 18 mph 1005.2mb 59f 53f
12:18pm 11 16 mph 1005.4mb 59f 53f
12:12pm 10 14 mph 1005.4mb 59f 53f
12:06pm 9 14 mph 1005.5mb 59f 53f
12:00pm 11 17 mph 1005.5mb 59f 53f
11:48am 9 17 mph 1005.6mb 59f 53f
11:42am 13 16 mph 1005.7mb 59f 53f
11:36am 13 18 mph 1005.7mb 59f 53f
11:30am 11 14 mph 1005.6mb 59f 53f
11:24am 14 16 mph 1005.6mb 59f 53f
11:18am 11 15 mph 1005.5mb 59f 53f
11:12am 9 14 mph 1005.5mb 59f 53f
11:06am 10 17 mph 1005.5mb 59f 53f
11:00am 11 14 mph 1005.5mb 59f 53f
10:54am 11 16 mph 1005.5mb 59f 53f
10:48am 10 14 mph 1005.6mb 59f 53f
10:42am 9 13 mph 1005.5mb 59f 53f
10:36am 9 16 mph 1005.5mb 59f 53f
10:30am 9 14 mph 1005.6mb 59f 53f
10:24am 9 15 mph 1005.6mb 59f 53f
10:18am 9 14 mph 1005.6mb 59f 53f
10:12am 10 15 mph 1005.6mb 59f 53f
10:06am 8 16 mph 1005.6mb 59f 53f
10:00am 9 14 mph 1005.5mb 59f 52f
9:54am 11 16 mph 1005.4mb 59f 52f
9:48am 9 15 mph 1005.5mb 59f 52f
9:42am 8 13 mph 1005.5mb 59f 52f
9:36am 10 14 mph 1005.5mb 59f 52f
9:30am 9 14 mph 1005.5mb 59f 52f
9:24am 8 11 mph 1005.5mb 59f 52f
9:18am 7 10 mph 1005.5mb 59f 52f
9:12am 8 10 mph 1005.5mb 59f 52f
9:06am 7 11 mph 1005.5mb 59f 52f
9:00am 8 11 mph 1005.5mb 59f 52f
8:54am 7 11 mph 1005.5mb 59f 52f
8:48am 8 11 mph 1005.5mb 59f 52f
8:42am 8 11 mph 1005.5mb 59f 52f
8:36am 7 11 mph 1005.6mb 59f 52f
8:30am 8 13 mph 1005.5mb 59f 52f
8:24am 8 14 mph 1005.4mb 59f 52f
8:18am 7 11 mph 1005.3mb 59f 52f
8:12am 7 11 mph 1005.2mb 59f 52f
8:06am 8 10 mph 1005.2mb 59f 51f
8:00am 6 11 mph 1005.2mb 59f 51f
7:54am 7 13 mph 1005.2mb 59f 51f
7:48am 8 14 mph 1005.1mb 59f 51f
7:42am 8 11 mph 1005.1mb 59f 51f
7:36am 9 13 mph 1005.1mb 59f 51f
7:30am 9 13 mph 1005mb 59f 51f
7:24am 8 13 mph 1005mb 58f 52f
7:12am 8 10 mph 1005mb 58f 52f
7:06am 8 14 mph 1004.9mb 58f 52f
7:00am 11 15 mph 1004.8mb 58f 52f
6:54am 13 16 mph 1004.7mb 58f 52f
6:48am 15 21 mph 1004.6mb 58f 52f
6:42am 11 17 mph 1004.6mb 58f 52f
6:36am 10 16 mph 1004.6mb 58f 52f
6:30am 10 14 mph 1004.6mb 58f 52f
6:24am 14 17 mph 1004.5mb 58f 52f
6:18am 14 21 mph 1004.4mb 59f 52f
6:12am 14 18 mph 1004.3mb 59f 52f
6:06am 13 16 mph 1004.3mb 59f 52f
6:00am 10 17 mph 1004.3mb 59f 52f
5:54am 9 17 mph 1004.2mb 59f 52f
5:48am 11 18 mph 1004.2mb 59f 52f
5:42am 13 16 mph 1004.2mb 59f 52f
5:36am 10 17 mph 1004.1mb 59f 52f
5:30am 13 17 mph 1004.1mb 59f 52f
5:24am 16 20 mph 1004mb 59f 52f
5:18am 14 23 mph 1003.9mb 59f 52f
5:12am 14 16 mph 1003.8mb 59f 52f
5:06am 14 17 mph 1003.8mb 59f 52f
5:00am 15 18 mph 1003.7mb 59f 52f
4:54am 16 21 mph 1003.7mb 59f 52f
4:48am 15 20 mph 1003.6mb 59f 52f
4:42am 15 18 mph 1003.7mb 59f 52f
4:36am 14 18 mph 1003.7mb 59f 52f
4:30am 14 17 mph 1003.7mb 59f 52f
4:24am 13 20 mph 1003.6mb 59f 52f
4:18am 13 18 mph 1003.5mb 59f 52f
4:12am 15 20 mph 1003.4mb 59f 51f
4:06am 14 20 mph 1003.3mb 59f 51f
4:00am 15 18 mph 1003.3mb 59f 51f
3:54am 13 17 mph 1003.3mb 59f 51f
3:48am 15 18 mph 1003.3mb 59f 51f
3:42am 13 18 mph 1003.2mb 59f 51f
3:36am 15 21 mph 1003.3mb 59f 51f
3:30am 13 16 mph 1003.3mb 59f 51f
3:24am 13 20 mph 1003.3mb 59f 51f
3:18am 15 21 mph 1003.4mb 59f 52f
3:12am 15 20 mph 1003.4mb 59f 52f
3:06am 14 23 mph 1003.4mb 59f 52f
3:00am 15 18 mph 1003.3mb 59f 52f
2:54am 14 22 mph 1003.4mb 59f 52f
2:48am 15 18 mph 1003.4mb 59f 51f
2:42am 15 21 mph 1003.4mb 59f 52f
2:36am 17 24 mph 1003.3mb 59f 52f
2:30am 14 22 mph 1003.3mb 59f 51f
2:24am 14 20 mph 1003.3mb 59f 51f
2:18am 14 21 mph 1003.3mb 59f 51f
2:12am 16 21 mph 1003.2mb 59f 51f
2:06am 16 25 mph 1003.1mb 59f 51f
2:00am 16 24 mph 1003.1mb 59f 52f
1:54am 15 22 mph 1003.3mb 59f 52f
1:48am 15 22 mph 1003.2mb 59f 52f
1:42am 15 21 mph 1003.2mb 59f 52f
1:36am 16 23 mph 1003.2mb 59f 52f
1:30am 14 24 mph 1003.2mb 59f 52f
1:24am 15 26 mph 1003.2mb 59f 52f
1:18am 18 25 mph 1003.2mb 59f 52f
1:12am 18 24 mph 1003.2mb 59f 52f
1:06am 17 25 mph 1003.2mb 59f 52f
1:00am 20 23 mph 1003mb 59f 52f
12:54am 17 24 mph 1003mb 59f 52f
12:48am 18 23 mph 1002.8mb 59f 52f
12:42am 20 25 mph 1002.8mb 59f 52f
12:36am 18 29 mph 1002.8mb 59f 52f
12:30am 18 24 mph 1002.7mb 59f 52f
12:24am 18 24 mph 1002.7mb 59f 52f
12:18am 18 24 mph 1002.7mb 59f 52f
12:12am 20 26 mph 1002.7mb 59f 52f
12:06am 20 26 mph 1002.6mb 59f 52f
12:00am 20 24 mph 1002.7mb 59f 53f
Thu 10/23 11:54pm 17 24 mph 1002.8mb 59f 53f
11:48pm 20 26 mph 1002.7mb 59f 53f
11:42pm 18 28 mph 1002.7mb 59f 53f
11:36pm 18 24 mph 1002.7mb 59f 53f
11:30pm 20 24 mph 1002.7mb 59f 53f
11:24pm 18 21 mph 1002.7mb 59f 53f
11:18pm 16 24 mph 1002.8mb 59f 53f
11:12pm 17 25 mph 1002.7mb 59f 53f
11:06pm 21 26 mph 1002.6mb 59f 53f
11:00pm 17 26 mph 1002.7mb 59f 53f
10:54pm 20 25 mph 1002.7mb 59f 53f
10:48pm 17 24 mph 1002.7mb 59f 53f
10:42pm 22 30 mph 1002.6mb 59f 53f
10:36pm 22 25 mph 1002.7mb 59f 53f
10:30pm 22 26 mph 1002.8mb 59f 53f
10:24pm 17 25 mph 1002.8mb 59f 53f
10:18pm 18 24 mph 1002.7mb 59f 53f
10:12pm 21 25 mph 1002.7mb 59f 53f
10:06pm 22 26 mph 1002.7mb 59f 53f
10:00pm 21 23 mph 1002.7mb 59f 53f
9:54pm 22 25 mph 1002.8mb 59f 53f
9:48pm 17 26 mph 1002.8mb 59f 53f
9:42pm 17 25 mph 1002.9mb 59f 53f
9:36pm 21 25 mph 1002.8mb 59f 53f
9:30pm 18 23 mph 1002.7mb 59f 53f
9:24pm 20 25 mph 1002.6mb 59f 53f
9:12pm 21 26 mph 1002.4mb 59f 53f
9:06pm 22 28 mph 1002.3mb 59f 53f
9:00pm 20 26 mph 1002.3mb 59f 53f
8:54pm 18 25 mph 1002.4mb 59f 54f
8:48pm 21 31 mph 1002.3mb 59f 54f
8:42pm 23 28 mph 1002.3mb 59f 54f
8:36pm 25 29 mph 1002.3mb 59f 54f
8:30pm 21 29 mph 1002.3mb 59f 54f
8:24pm 24 31 mph 1002.1mb 59f 54f
8:18pm 21 30 mph 1002.1mb 59f 54f
8:12pm 22 29 mph 1002mb 59f 54f
8:00pm 23 30 mph 1001.9mb 59f 54f
7:48pm 24 30 mph 1002mb 59f 54f
7:42pm 21 28 mph 1001.9mb 59f 54f
7:36pm 22 31 mph 1001.9mb 59f 54f
7:30pm 21 29 mph 1001.8mb 59f 54f
7:24pm 22 29 mph 1001.7mb 59f 54f
7:18pm 23 31 mph 1001.7mb 59f 55f
7:12pm 22 29 mph 1001.6mb 59f 55f
7:06pm 24 30 mph 1001.4mb 59f 55f
7:00pm 24 34 mph 1001.3mb 59f 55f
6:54pm 23 30 mph 1001.2mb 59f 55f
6:48pm 22 28 mph 1001.1mb 59f 55f
6:42pm 22 29 mph 1001mb 59f 55f
6:36pm 23 29 mph 1000.9mb 59f 55f
6:30pm 23 29 mph 1000.9mb 59f 55f
6:24pm 23 29 mph 1000.8mb 59f 55f
6:18pm 20 29 mph 1000.6mb 59f 55f
6:12pm 23 28 mph 1000.5mb 59f 55f
6:06pm 22 31 mph 1000.5mb 59f 55f
6:00pm 21 26 mph 1000.5mb 59f 55f
5:54pm 20 28 mph 1000.3mb 59f 55f
5:48pm 22 26 mph 1000.3mb 59f 55f
5:42pm 18 26 mph 1000.4mb 59f 55f
5:36pm 20 26 mph 1000.4mb 59f 55f
5:30pm 18 26 mph 1000.4mb 59f 55f
5:24pm 22 29 mph 1000.3mb 59f 55f
5:18pm 23 28 mph 1000.2mb 59f 55f
5:12pm 23 29 mph 1000.1mb 59f 55f
5:06pm 21 25 mph 1000.1mb 59f 55f
5:00pm 21 26 mph 1000.1mb 59f 56f
4:54pm 20 26 mph 999.9mb 59f 56f
4:48pm 21 30 mph 999.9mb 59f 56f
4:42pm 21 26 mph 999.7mb 59f 56f
4:36pm 21 29 mph 999.7mb 59f 56f
4:24pm 21 30 mph 999.7mb 59f 57f
4:18pm 22 29 mph 999.6mb 59f 57f
4:12pm 20 32 mph 999.6mb 59f 57f
4:06pm 22 29 mph 999.5mb 59f 57f
4:00pm 21 28 mph 999.6mb 59f 57f
3:48pm 22 32 mph 999.6mb 59f 57f
3:42pm 23 29 mph 999.5mb 59f 57f
3:36pm 22 29 mph 999.6mb 59f 57f
3:30pm 22 30 mph 999.5mb 59f 57f
3:24pm 23 29 mph 999.5mb 59f 57f
3:18pm 21 28 mph 999.7mb 59f 57f
3:12pm 20 24 mph 999.7mb 59f 57f
3:06pm 21 26 mph 999.8mb 59f 57f
3:00pm 21 28 mph 999.9mb 59f 57f
2:54pm 21 26 mph 999.9mb 59f 57f
2:48pm 23 29 mph 999.9mb 59f 57f
2:42pm 23 30 mph 999.7mb 59f 57f
2:36pm 20 28 mph 999.8mb 59f 57f
2:30pm 21 29 mph 999.8mb 59f 57f
2:24pm 22 29 mph 999.8mb 59f 57f
2:18pm 22 30 mph 999.9mb 59f 57f
2:12pm 26 30 mph 999.8mb 59f 57f
2:06pm 22 31 mph 999.9mb 59f 57f
2:00pm 20 24 mph 999.9mb 59f 56f
1:54pm 18 28 mph 1000mb 59f 56f
1:48pm 20 24 mph 1000mb 59f 56f
1:42pm 18 26 mph 1000.1mb 59f 56f
1:36pm 18 25 mph 1000.2mb 59f 56f
1:24pm 20 26 mph 1000.1mb 59f 56f
1:18pm 20 25 mph 1000mb 59f 55f
1:12pm 21 28 mph 1000.1mb 59f 55f
1:06pm 20 26 mph 1000.2mb 59f 55f
1:00pm 18 25 mph 1000.4mb 59f 55f
12:54pm 17 24 mph 1000.5mb 59f 55f
12:48pm 21 26 mph 1000.5mb 59f 55f
12:42pm 17 23 mph 1000.6mb 59f 55f
12:36pm 22 25 mph 1000.7mb 59f 55f
12:30pm 21 26 mph 1000.7mb 59f 55f
12:24pm 21 26 mph 1000.9mb 59f 55f
12:18pm 20 24 mph 1001mb 59f 55f
12:12pm 23 26 mph 1001.2mb 59f 55f
12:06pm 23 29 mph 1001.3mb 59f 55f
12:00pm 23 30 mph 1001.4mb 59f 55f
11:54am 22 30 mph 1001.5mb 59f 55f
11:48am 24 30 mph 1001.4mb 59f 55f
11:42am 24 29 mph 1001.5mb 59f 55f
11:36am 23 28 mph 1001.5mb 59f 55f
11:30am 22 26 mph 1001.6mb 59f 55f
11:24am 24 29 mph 1001.6mb 59f 55f
11:18am 21 26 mph 1001.6mb 59f 55f
11:12am 22 29 mph 1001.6mb 59f 55f
11:06am 23 26 mph 1001.5mb 59f 55f
11:00am 22 26 mph 1001.5mb 59f 56f
10:54am 23 28 mph 1001.5mb 59f 55f
10:48am 20 29 mph 1001.4mb 59f 56f
10:42am 22 28 mph 1001.4mb 59f 55f
10:36am 22 28 mph 1001.4mb 59f 55f
10:30am 23 30 mph 1001.5mb 59f 55f
10:24am 22 28 mph 1001.5mb 59f 55f
10:18am 24 29 mph 1001.5mb 59f 55f
10:12am 23 26 mph 1001.5mb 59f 55f
10:06am 22 29 mph 1001.6mb 59f 55f
10:00am 24 32 mph 1001.7mb 59f 55f
9:54am 26 30 mph 1001.7mb 59f 55f
9:48am 22 31 mph 1001.7mb 59f 54f
9:42am 23 30 mph 1001.7mb 59f 54f
9:36am 22 33 mph 1001.8mb 59f 54f
9:30am 24 31 mph 1001.7mb 59f 54f
9:24am 23 31 mph 1001.8mb 59f 54f
9:18am 23 30 mph 1001.7mb 59f 54f
9:12am 25 31 mph 1001.7mb 59f 54f
9:06am 24 29 mph 1001.6mb 59f 54f
9:00am 23 28 mph 1001.5mb 59f 54f
8:54am 21 31 mph 1001.5mb 59f 54f
8:48am 24 30 mph 1001.3mb 59f 54f
8:42am 22 24 mph 1001.5mb 60f 54f
8:30am 23 28 mph 1001.4mb 60f 54f
8:24am 22 30 mph 1001.5mb 60f 54f
8:18am 23 32 mph 1001.5mb 60f 55f
8:12am 23 29 mph 1001.4mb 60f 54f
8:06am 25 30 mph 1001.3mb 60f 54f
8:00am 22 29 mph 1001.4mb 60f 54f
7:54am 22 29 mph 1001.5mb 60f 55f
7:48am 20 25 mph 1001.4mb 60f 55f
7:42am 22 26 mph 1001.3mb 60f 55f
7:36am 22 29 mph 1001.2mb 60f 55f
7:30am 24 31 mph 1001.1mb 60f 55f
7:24am 23 33 mph 1000.9mb 60f 55f
7:18am 23 30 mph 1000.9mb 60f 55f
7:12am 24 29 mph 1000.7mb 60f 55f
7:06am 22 32 mph 1000.7mb 60f 55f
7:00am 23 31 mph 1000.6mb 60f 55f
6:54am 22 29 mph 1000.6mb 60f 55f
6:48am 23 34 mph 1000.7mb 60f 55f
6:42am 24 34 mph 1000.9mb 60f 55f
6:36am 26 32 mph 1000.8mb 60f 55f
6:30am 28 36 mph 1000.7mb 60f 55f
6:24am 23 31 mph 1001.2mb 60f 55f
6:18am 28 31 mph 1001.5mb 60f 54f
6:12am 24 34 mph 1001.3mb 60f 54f
6:06am 25 33 mph 1001mb 60f 54f
6:00am 25 37 mph 1000.6mb 60f 53f
5:54am 28 39 mph 1000.2mb 60f 53f
5:48am 25 38 mph 999.8mb 60f 53f
5:42am 26 33 mph 1000.5mb 60f 53f
5:36am 23 30 mph 1001.2mb 60f 53f
5:30am 23 30 mph 1001.9mb 60f 52f
5:24am 23 31 mph 1001.8mb 60f 52f
5:18am 23 28 mph 1001.5mb 60f 52f
5:12am 24 30 mph 1001.4mb 60f 51f
5:06am 23 28 mph 1002mb 60f 52f
5:00am 22 30 mph 1002.3mb 60f 52f
4:54am 23 31 mph 1002.2mb 60f 52f
4:48am 26 32 mph 1002.4mb 60f 53f
4:42am 26 31 mph 1002.3mb 60f 53f
4:36am 21 26 mph 1002.6mb 60f 53f
4:30am 21 25 mph 1002.7mb 60f 53f
4:24am 23 37 mph 1002.6mb 60f 53f
4:18am 26 32 mph 1002.5mb 60f 53f
4:12am 25 31 mph 1002.6mb 60f 53f
4:06am 24 34 mph 1002.4mb 60f 53f
4:00am 28 37 mph 1002.3mb 60f 53f
3:54am 24 31 mph 1002.5mb 60f 53f
3:48am 23 33 mph 1002.4mb 59f 53f
3:42am 25 32 mph 1002.5mb 60f 53f
3:36am 28 33 mph 1002.5mb 60f 53f
3:30am 25 32 mph 1002.6mb 59f 53f
3:24am 28 37 mph 1002.8mb 59f 54f
3:18am 26 38 mph 1002.9mb 60f 54f
3:12am 26 34 mph 1002.8mb 60f 54f
3:06am 29 36 mph 1002.6mb 60f 54f
3:00am 28 36 mph 1002.5mb 60f 54f
2:54am 28 37 mph 1002.1mb 60f 54f
2:48am 28 37 mph 1002.4mb 60f 54f
2:42am 30 39 mph 1003mb 60f 54f
2:36am 30 43 mph 1002.9mb 60f 54f
2:30am 31 40 mph 1003.2mb 60f 54f
2:24am 34 40 mph 1003.2mb 60f 54f
2:18am 31 38 mph 1003.3mb 60f 54f
2:12am 34 40 mph 1003.4mb 60f 54f
2:06am 31 43 mph 1003.1mb 60f 54f
2:00am 32 43 mph 1003mb 60f 54f
1:54am 28 38 mph 1003.3mb 60f 54f
1:48am 32 40 mph 1003.5mb 60f 54f
1:42am 29 40 mph 1003.9mb 60f 54f
1:36am 30 38 mph 1004.2mb 60f 54f
1:30am 29 38 mph 1004.1mb 60f 54f
1:24am 29 38 mph 1004.4mb 60f 54f
1:18am 29 36 mph 1004.6mb 60f 54f
1:12am 29 36 mph 1004.6mb 60f 54f
1:06am 30 33 mph 1004.8mb 60f 54f
1:00am 28 32 mph 1004.9mb 60f 53f
12:54am 29 36 mph 1004.9mb 60f 54f
12:48am 28 33 mph 1004.8mb 60f 53f
12:42am 28 37 mph 1004.7mb 60f 54f
12:36am 30 36 mph 1004.7mb 60f 54f
12:30am 28 32 mph 1004.9mb 60f 54f
12:24am 26 31 mph 1005mb 60f 54f
12:18am 24 33 mph 1005.3mb 60f 54f
12:12am 25 31 mph 1005mb 60f 54f
12:06am 28 31 mph 1004.9mb 60f 54f
12:00am 24 29 mph 1005.3mb 60f 54f
Wed 10/22 11:54pm 23 29 mph 1005.5mb 60f 54f
11:48pm 26 32 mph 1005.5mb 60f 54f
11:42pm 25 32 mph 1005.5mb 60f 54f
11:36pm 28 31 mph 1005.4mb 60f 54f
11:30pm 29 34 mph 1005.5mb 60f 54f
11:24pm 28 32 mph 1005.4mb 60f 54f
11:18pm 28 34 mph 1005.4mb 60f 55f
11:12pm 28 32 mph 1005.6mb 60f 55f
11:06pm 22 31 mph 1005.8mb 60f 55f
11:00pm 30 36 mph 1005.7mb 60f 55f
10:54pm 30 34 mph 1005.6mb 60f 55f
10:48pm 28 34 mph 1005.4mb 60f 55f
10:42pm 29 33 mph 1005.6mb 60f 54f
10:36pm 28 37 mph 1005.8mb 60f 54f
10:30pm 30 37 mph 1005.8mb 60f 55f
10:24pm 33 40 mph 1005.6mb 60f 55f
10:18pm 31 37 mph 1005.2mb 60f 55f
10:12pm 33 39 mph 1005.2mb 60f 55f
10:06pm 32 41 mph 1005.1mb 60f 55f
10:00pm 33 37 mph 1004.9mb 60f 55f
9:54pm 31 36 mph 1005.2mb 60f 55f
9:48pm 29 39 mph 1005.3mb 60f 55f
9:42pm 33 39 mph 1005.2mb 60f 55f
9:36pm 32 39 mph 1005.2mb 60f 56f
9:30pm 32 38 mph 1005.2mb 60f 56f
9:24pm 36 40 mph 1004.9mb 60f 57f
9:18pm 38 47 mph 1004.9mb 60f 57f
9:12pm 41 47 mph 1004.4mb 60f 56f
9:06pm 43 48 mph 1004.6mb 60f 56f
9:00pm 39 45 mph 1004.5mb 60f 56f
8:54pm 38 45 mph 1005.1mb 60f 56f
8:48pm 38 45 mph 1004.1mb 60f 55f
8:42pm 36 46 mph 1003.8mb 60f 55f
8:36pm 39 48 mph 1004.5mb 60f 56f
8:30pm 31 46 mph 1004.1mb 60f 56f
8:24pm 40 45 mph 1003.8mb 60f 56f
8:18pm 38 46 mph 1004.1mb 60f 56f
8:12pm 40 49 mph 1004.3mb 60f 57f
8:06pm 33 39 mph 1004.5mb 60f 56f
8:00pm 30 37 mph 1004.7mb 60f 56f
7:54pm 30 36 mph 1004.8mb 60f 55f
7:48pm 29 34 mph 1004.7mb 60f 55f
7:42pm 29 32 mph 1005.1mb 60f 54f
7:36pm 26 34 mph 1005.5mb 60f 54f
7:30pm 30 36 mph 1005.4mb 60f 54f
7:24pm 29 36 mph 1005.7mb 60f 54f
7:18pm 29 39 mph 1005.9mb 60f 54f
7:12pm 29 38 mph 1006.2mb 60f 54f
7:06pm 30 39 mph 1006.5mb 60f 54f
7:00pm 33 39 mph 1006.3mb 60f 54f
6:54pm 30 41 mph 1006.4mb 60f 54f
6:48pm 31 39 mph 1006.4mb 60f 54f
6:42pm 30 43 mph 1006.5mb 60f 54f
6:36pm 34 41 mph 1006.4mb 60f 54f
6:30pm 36 41 mph 1006.4mb 60f 53f
6:24pm 33 44 mph 1006.5mb 60f 53f
6:18pm 36 43 mph 1006.7mb 60f 54f
6:12pm 36 45 mph 1007.1mb 60f 53f
6:06pm 36 44 mph 1007.2mb 60f 53f
6:00pm 32 44 mph 1007.3mb 60f 53f
5:54pm 34 45 mph 1007.2mb 60f 53f
5:48pm 31 43 mph 1007.5mb 60f 53f
5:42pm 32 41 mph 1007.8mb 60f 54f
5:36pm 33 44 mph 1008.2mb 60f 54f
5:30pm 34 44 mph 1008.2mb 60f 53f
5:24pm 36 41 mph 1008.3mb 60f 54f
5:18pm 28 38 mph 1008.4mb 60f 53f
5:12pm 34 47 mph 1008.5mb 60f 53f
5:06pm 32 40 mph 1008.5mb 60f 53f
5:00pm 28 38 mph 1008.7mb 60f 53f
4:54pm 33 37 mph 1008.7mb 60f 53f
4:48pm 30 38 mph 1008.8mb 60f 53f
4:42pm 36 41 mph 1008.8mb 60f 53f
4:36pm 32 41 mph 1009mb 60f 53f
4:30pm 34 41 mph 1009.1mb 60f 53f
4:24pm 32 39 mph 1009.2mb 60f 53f
4:18pm 31 44 mph 1009.1mb 60f 53f
4:12pm 34 40 mph 1009.1mb 60f 53f
4:06pm 32 40 mph 1009.4mb 61f 53f
4:00pm 32 39 mph 1009.5mb 61f 53f
3:54pm 29 33 mph 1009.6mb 61f 53f
3:48pm 28 32 mph 1009.7mb 61f 53f
3:42pm 25 30 mph 1009.9mb 61f 54f
3:36pm 24 31 mph 1010.1mb 61f 54f
3:30pm 26 33 mph 1010.3mb 61f 54f
3:24pm 28 34 mph 1010.3mb 61f 54f
3:18pm 32 38 mph 1010.4mb 61f 55f
3:12pm 25 36 mph 1010.6mb 61f 55f
3:06pm 28 37 mph 1010.6mb 61f 56f
3:00pm 29 34 mph 1010.7mb 61f 55f
2:54pm 30 36 mph 1010.8mb 61f 55f
2:48pm 32 37 mph 1010.7mb 61f 55f
2:42pm 34 39 mph 1010.6mb 61f 55f
2:36pm 28 36 mph 1010.7mb 61f 55f
2:30pm 25 32 mph 1010.9mb 61f 55f
2:24pm 24 30 mph 1011mb 61f 56f
2:18pm 28 33 mph 1011mb 61f 55f
2:12pm 25 32 mph 1011mb 61f 56f
2:06pm 28 34 mph 1011mb 61f 56f
2:00pm 29 34 mph 1011mb 61f 56f
1:54pm 28 33 mph 1011mb 61f 56f
1:48pm 26 31 mph 1011mb 61f 56f
1:42pm 29 34 mph 1011.1mb 61f 56f
1:36pm 26 33 mph 1011.1mb 61f 56f
1:30pm 26 32 mph 1011.2mb 61f 56f
1:18pm 26 31 mph 1011.4mb 61f 56f
1:12pm 26 32 mph 1011.6mb 61f 56f
1:06pm 28 32 mph 1011.7mb 61f 56f
1:00pm 26 32 mph 1011.8mb 61f 56f
12:54pm 25 31 mph 1011.8mb 61f 56f
12:48pm 26 32 mph 1011.9mb 61f 56f
12:42pm 25 30 mph 1011.8mb 61f 56f
12:36pm 26 32 mph 1011.7mb 61f 56f
12:30pm 26 32 mph 1011.8mb 61f 56f
12:24pm 25 29 mph 1011.9mb 61f 56f
12:18pm 23 30 mph 1012.4mb 61f 56f
12:12pm 29 36 mph 1012.3mb 61f 56f
12:06pm 25 32 mph 1012.2mb 61f 56f
12:00pm 28 31 mph 1012.3mb 61f 56f
11:54am 22 34 mph 1012.6mb 61f 56f
11:48am 28 32 mph 1012.6mb 61f 56f
11:42am 24 30 mph 1012.7mb 61f 57f
11:36am 28 32 mph 1012.9mb 61f 57f
11:30am 26 33 mph 1012.9mb 61f 57f
11:24am 26 34 mph 1012.8mb 61f 57f
11:18am 26 31 mph 1012.8mb 61f 57f
11:12am 25 31 mph 1012.9mb 61f 57f
11:06am 29 33 mph 1012.8mb 61f 57f
11:00am 29 36 mph 1012.8mb 61f 57f
10:54am 30 36 mph 1012.8mb 61f 57f
10:48am 31 36 mph 1012.9mb 61f 57f
10:42am 28 31 mph 1012.9mb 61f 57f
10:36am 26 32 mph 1013mb 61f 58f
10:30am 28 31 mph 1012.8mb 61f 58f
10:24am 25 32 mph 1013mb 61f 58f
10:18am 26 34 mph 1013mb 61f 58f
10:12am 31 38 mph 1012.9mb 61f 58f
10:06am 29 34 mph 1012.7mb 61f 58f
10:00am 29 34 mph 1012.8mb 61f 58f
9:54am 23 26 mph 1012.8mb 61f 58f
9:48am 24 29 mph 1012.7mb 61f 58f
9:42am 22 25 mph 1012.8mb 61f 57f
9:36am 21 25 mph 1013mb 61f 57f
9:30am 20 22 mph 1013.3mb 61f 57f
9:24am 17 22 mph 1013.5mb 61f 56f
9:18am 18 22 mph 1013.5mb 61f 56f
9:12am 17 22 mph 1013.6mb 61f 56f
9:06am 17 23 mph 1013.6mb 61f 56f
9:00am 17 22 mph 1013.8mb 61f 56f
8:54am 17 22 mph 1013.8mb 61f 56f
8:48am 17 22 mph 1013.9mb 61f 55f
8:42am 17 21 mph 1013.9mb 61f 55f
8:36am 15 22 mph 1013.8mb 61f 55f
8:30am 18 24 mph 1013.8mb 61f 55f
8:24am 18 24 mph 1013.3mb 61f 55f
8:18am 20 23 mph 1013.5mb 61f 55f
8:12am 17 20 mph 1013.7mb 61f 55f
8:06am 17 22 mph 1013.5mb 61f 54f
8:00am 17 22 mph 1013.2mb 61f 54f
7:54am 16 20 mph 1013.1mb 62f 54f
7:48am 17 20 mph 1013.1mb 62f 54f
7:42am 18 22 mph 1012.9mb 62f 54f
7:36am 16 22 mph 1012.9mb 62f 54f
7:30am 16 21 mph 1012.9mb 62f 54f
7:24am 16 20 mph 1012.8mb 62f 54f
7:18am 18 22 mph 1012.9mb 62f 53f
7:12am 17 23 mph 1012.9mb 62f 54f
7:06am 16 23 mph 1013mb 62f 53f
7:00am 20 24 mph 1013.1mb 62f 53f
6:54am 20 25 mph 1013.1mb 62f 53f
6:48am 18 23 mph 1013mb 62f 53f
6:42am 20 24 mph 1013.1mb 62f 53f
6:36am 18 21 mph 1013.4mb 62f 53f
6:30am 18 22 mph 1013.6mb 62f 53f
6:24am 20 22 mph 1013.6mb 62f 53f
6:18am 17 21 mph 1013.5mb 62f 53f
6:12am 17 23 mph 1013.4mb 62f 53f
6:06am 18 23 mph 1013.4mb 62f 53f
6:00am 21 24 mph 1013.6mb 62f 53f
5:54am 18 22 mph 1013.8mb 62f 53f
5:48am 16 22 mph 1013.8mb 62f 53f
5:42am 17 22 mph 1013.5mb 62f 53f
5:36am 17 23 mph 1013.7mb 62f 53f
5:30am 20 24 mph 1013.8mb 62f 53f
5:24am 20 23 mph 1013.7mb 62f 53f
5:18am 20 24 mph 1013.6mb 62f 53f
5:12am 20 22 mph 1013.5mb 62f 54f
5:06am 17 23 mph 1013.5mb 62f 54f
5:00am 17 24 mph 1013.4mb 62f 54f
4:54am 20 23 mph 1013.2mb 62f 54f
4:48am 21 24 mph 1013.1mb 62f 54f
4:42am 21 24 mph 1013mb 62f 54f
4:36am 18 23 mph 1013.1mb 62f 54f
4:30am 17 24 mph 1013mb 62f 54f
4:18am 20 23 mph 1013mb 62f 54f
4:12am 21 23 mph 1012.9mb 62f 54f
4:06am 17 24 mph 1012.8mb 62f 54f
4:00am 20 22 mph 1012.7mb 62f 54f
3:54am 20 23 mph 1012.9mb 62f 55f
3:48am 18 23 mph 1012.8mb 62f 55f
3:42am 20 23 mph 1012.8mb 62f 55f
3:30am 22 24 mph 1012.6mb 62f 55f
3:24am 20 24 mph 1012.6mb 62f 55f
3:18am 21 22 mph 1012.7mb 62f 55f
3:12am 20 22 mph 1012.7mb 62f 55f
3:06am 18 22 mph 1012.8mb 62f 55f
3:00am 20 22 mph 1013mb 62f 55f
2:54am 17 21 mph 1013mb 62f 55f
2:48am 20 22 mph 1013mb 62f 55f
2:42am 18 22 mph 1013.1mb 62f 55f
2:36am 17 21 mph 1013mb 62f 56f
2:30am 20 22 mph 1013mb 62f 56f
2:24am 18 21 mph 1013.1mb 62f 56f
2:18am 15 22 mph 1013.1mb 62f 56f
2:12am 20 23 mph 1013.1mb 62f 56f
2:06am 18 24 mph 1013.1mb 62f 57f
2:00am 17 21 mph 1013.2mb 62f 57f
1:54am 18 21 mph 1013.2mb 62f 57f
1:42am 17 23 mph 1013mb 62f 57f
1:36am 20 22 mph 1013mb 62f 57f
1:30am 20 22 mph 1013mb 62f 58f
1:24am 20 23 mph 1013mb 62f 58f
1:18am 20 22 mph 1013.1mb 62f 58f
1:12am 18 22 mph 1013.2mb 62f 58f
1:06am 18 22 mph 1013.3mb 62f 58f
12:54am 16 18 mph 1013.5mb 62f 58f
12:48am 15 20 mph 1013.6mb 62f 58f
12:42am 16 20 mph 1013.6mb 62f 58f
12:36am 20 22 mph 1013.6mb 62f 58f
12:30am 17 20 mph 1013.6mb 62f 58f
12:24am 17 22 mph 1013.6mb 62f 58f
12:18am 17 22 mph 1013.6mb 62f 58f
12:12am 18 21 mph 1013.5mb 62f 58f
12:06am 16 18 mph 1013.5mb 62f 58f
12:00am 17 20 mph 1013.5mb 62f 58f
Tue 10/21 11:54pm 15 20 mph 1013.5mb 62f 58f
11:48pm 16 21 mph 1013.5mb 62f 58f
11:42pm 15 18 mph 1013.6mb 62f 58f
11:36pm 16 20 mph 1013.6mb 62f 57f
11:30pm 16 20 mph 1013.7mb 62f 57f
11:24pm 15 20 mph 1013.7mb 62f 57f
11:18pm 15 20 mph 1013.6mb 62f 57f
11:12pm 17 18 mph 1013.6mb 62f 57f
11:06pm 15 18 mph 1013.6mb 62f 57f
11:00pm 16 18 mph 1013.7mb 62f 57f
10:54pm 15 16 mph 1013.7mb 62f 57f
10:48pm 14 17 mph 1013.7mb 62f 57f
10:42pm 15 17 mph 1013.6mb 62f 57f
10:36pm 14 17 mph 1013.6mb 62f 58f
10:30pm 14 18 mph 1013.5mb 62f 58f
10:24pm 14 18 mph 1013.4mb 62f 58f
10:18pm 14 17 mph 1013.3mb 62f 58f
10:12pm 14 18 mph 1013.4mb 62f 58f
10:06pm 16 18 mph 1013.4mb 62f 58f
10:00pm 16 17 mph 1013.4mb 62f 58f
9:54pm 16 17 mph 1013.4mb 62f 58f
9:48pm 10 14 mph 1013.4mb 62f 59f
9:42pm 13 14 mph 1013.4mb 62f 59f
9:36pm 11 14 mph 1013.3mb 62f 59f
9:30pm 11 13 mph 1013.2mb 62f 59f
9:24pm 11 15 mph 1013mb 62f 59f
9:18pm 14 15 mph 1012.9mb 62f 59f
9:12pm 9 10 mph 1012.8mb 62f 60f
9:06pm 9 11 mph 1012.6mb 62f 60f
9:00pm 10 11 mph 1012.6mb 62f 60f
8:54pm 9 11 mph 1012.6mb 62f 59f
8:48pm 8 10 mph 1012.6mb 62f 59f
8:42pm 6 7 mph 1012.7mb 62f 59f
8:36pm 5 9 mph 1012.7mb 62f 59f
8:30pm 9 11 mph 1012.6mb 62f 60f
8:24pm 8 9 mph 1012.5mb 62f 60f
8:18pm 6 7 mph 1012.4mb 62f 60f
8:12pm 7 9 mph 1012.2mb 62f 60f
8:06pm 8 11 mph 1012.1mb 62f 60f
8:00pm 7 8 mph 1011.9mb 62f 61f
7:54pm 7 8 mph 1011.9mb 62f 61f
7:48pm 7 10 mph 1012mb 62f 61f
7:42pm 7 9 mph 1012mb 62f 61f
7:36pm 8 9 mph 1012mb 62f 61f
7:30pm 6 7 mph 1011.9mb 62f 60f
7:24pm 6 7 mph 1011.9mb 62f 61f
7:18pm 6
mph
1011.9mb 62f 61f
7:12pm 6 7 mph 1011.9mb 62f 61f
7:06pm 6 7 mph 1012mb 62f 61f
7:00pm 6
mph
1012mb 62f 61f
6:54pm 6
mph
1011.9mb 62f 61f
6:48pm 5 6 mph 1011.9mb 62f 61f
6:42pm 3 5 mph 1011.8mb 62f 61f
6:36pm 5 6 mph 1011.7mb 62f 62f
6:30pm 3 5 mph 1011.7mb 62f 62f
6:24pm 5 6 mph 1011.7mb 62f 62f
6:18pm 6
mph
1011.6mb 62f 62f
6:12pm 5 6 mph 1011.7mb 62f 62f
6:06pm 6
mph
1011.6mb 62f 62f
6:00pm 5 6 mph 1011.6mb 62f 62f
5:54pm 5 6 mph 1011.5mb 62f 62f
5:48pm 5 6 mph 1011.6mb 62f 62f
5:42pm 6 7 mph 1011.6mb 62f 62f
5:36pm 7
mph
1011.5mb 62f 62f
5:30pm 5 6 mph 1011.5mb 62f 62f
5:24pm 6 7 mph 1011.4mb 62f 62f
5:18pm 5 6 mph 1011.4mb 62f 62f
5:12pm 5 6 mph 1011.4mb 62f 62f
5:06pm 5 6 mph 1011.4mb 62f 62f
5:00pm 5 7 mph 1011.3mb 62f 63f
4:54pm 6 7 mph 1011.3mb 62f 62f
4:48pm 7 8 mph 1011.3mb 62f 63f
4:42pm 7
mph
1011.2mb 62f 62f
4:36pm 6 7 mph 1011.2mb 62f 62f
4:30pm 6 7 mph 1011.3mb 62f 62f
4:24pm 5 6 mph 1011.4mb 62f 63f
4:18pm 5 6 mph 1011.4mb 62f 63f
4:12pm 6 7 mph 1011.4mb 62f 63f
4:06pm 6 8 mph 1011.3mb 62f 63f
4:00pm 7 9 mph 1011.4mb 62f 63f
3:54pm 8
mph
1011.4mb 62f 63f
3:48pm 6 8 mph 1011.4mb 62f 62f
3:42pm 6 8 mph 1011.4mb 62f 63f
3:36pm 6 9 mph 1011.3mb 62f 63f
3:30pm 8 9 mph 1011.2mb 62f -
3:24pm 7 9 mph 1011.2mb 62f -
3:12pm 9 13 mph 1011.3mb 62f 62f
3:00pm 8 9 mph 1011.3mb 62f 62f
2:54pm 8 10 mph 1011.3mb 62f 62f
2:48pm 9 11 mph 1011.2mb 62f 62f
2:36pm 13 14 mph 1011.3mb 62f 62f
2:30pm 11 14 mph 1011.3mb 62f 62f
2:24pm 13 16 mph 1011.3mb 62f 62f
2:18pm 13 17 mph 1011.5mb 62f 62f
2:12pm 15 17 mph 1011.6mb 62f 62f
2:06pm 15 18 mph 1011.7mb 62f 62f
2:00pm 16 18 mph 1011.7mb 62f 62f
1:54pm 16 17 mph 1011.8mb 62f 62f
1:48pm 14 18 mph 1011.8mb 62f 62f
1:42pm 14 16 mph 1011.7mb 62f 62f
1:36pm 14 17 mph 1011.7mb 62f 62f
1:30pm 14 16 mph - 62f -
1:24pm 14 18 mph - 62f -
1:18pm 17 21 mph 1012mb 62f 62f
1:12pm 14 18 mph 1012mb 62f 62f
1:06pm 15 17 mph 1012.1mb 61f 62f
1:00pm 16 18 mph 1012mb 61f 62f
12:54pm 16 20 mph 1012.1mb 61f 62f
12:48pm 16 18 mph 1012.1mb 61f 62f
12:42pm 15 18 mph 1012.2mb 61f 62f
12:36pm 17 20 mph 1012.2mb 61f 62f
12:30pm 16 18 mph 1012.3mb 61f 61f
12:24pm 14 16 mph 1012.5mb 61f 61f
12:18pm 13 15 mph 1012.6mb 61f 62f
12:12pm 14 15 mph 1012.7mb 61f 62f
12:06pm 13 15 mph 1012.7mb 61f 62f
12:00pm 13 16 mph 1012.8mb 61f 62f
11:54am 13 15 mph 1012.9mb 61f 62f
11:48am 13 15 mph 1012.9mb 61f 62f
11:42am 11 14 mph 1012.9mb 61f 62f
11:36am 11 14 mph 1013mb 61f 62f
11:30am 10 11 mph 1013mb 61f 62f
11:24am 8 9 mph 1012.9mb 61f 62f
11:18am 8 9 mph 1013mb 61f 61f
11:12am 3 6 mph 1013.1mb 61f 61f
11:06am  -  3 mph 1013.1mb 61f 61f
11:00am 2 3 mph 1013.1mb 61f 60f
10:54am 1 5 mph 1013.2mb 61f 59f
10:48am 3 6 mph 1013.3mb 61f 59f
10:42am 5 6 mph 1013.2mb 61f 59f
10:36am 5 7 mph 1013.2mb 61f 59f
10:30am 6 7 mph 1013.2mb 61f 58f
10:24am 5 8 mph 1013.3mb 61f 58f
10:18am 7 8 mph 1013.2mb 61f 58f
10:12am 8 9 mph 1013.2mb 61f 58f
10:06am 8
mph
1013.3mb 61f 58f
10:00am 7 8 mph 1013.3mb 61f 58f
9:54am 7 8 mph 1013.4mb 61f 58f
9:48am 7 9 mph 1013.5mb 61f 57f
9:42am 7 9 mph 1013.5mb 62f 57f
9:36am 8 10 mph 1013.3mb 62f 56f
9:30am 7 9 mph 1013.5mb 62f 55f
9:24am 8 9 mph 1013.5mb 62f 54f
9:18am 6 8 mph 1013.7mb 62f 56f
9:12am 7 10 mph 1013.9mb 62f 55f
9:06am 8 10 mph 1013.7mb 62f 56f
9:00am 8 10 mph 1013.7mb 61f 55f
8:54am 6 8 mph 1013.7mb 61f 55f
8:48am 6 7 mph 1013.7mb 61f 57f
8:42am 7 8 mph 1013.9mb 61f 58f
8:36am 7 8 mph 1013.9mb 61f 57f
8:30am 8 9 mph 1013.9mb 61f 56f
8:24am 8 10 mph 1013.9mb 62f 56f
8:18am 8 10 mph 1013.8mb 62f 55f
8:12am 5 7 mph 1014mb 61f 53f
8:06am 6 7 mph 1013.9mb 61f 52f
8:00am 6 7 mph 1013.8mb 61f 52f
7:54am 6 8 mph 1013.7mb 61f 52f
7:48am 7 9 mph 1013.6mb 61f 52f
7:42am 7 9 mph 1013.6mb 61f 52f
7:36am 7
mph
1013.5mb 61f 53f
7:30am 6 9 mph 1013.4mb 61f 54f